Wasilla, Alaska
Current Conditions -  °F | °C
As of 11:16 PM on Wednesday 28 Jan 2015 (Local Time) from PAWS Reporting Station
Clear Clear  
Wind Chill: -12°   Ceiling: Unl
Heat Index: -2°   Visibility: 10mi
Dew Point: -9°   Wind: 5mph
Humidity: 71%   Direction: 270°W
Pressure: 29.95"   Gusts: NA
Location:  61.58°N, 149.45°W
Report Text: PAWS 290816Z AUTO 27004KT 10SM CLR M19/M23 A2995 RMK AO1
Loading
Personal Weather Stations






























Interactive Weather Map New forecast layout! Learn more

10-Day Weather Forecast

Advertisements
Track Severe Weather on mobile